Latest Weather Observations for Tasman Island

IDT60901

Issued at 3:41 am EST Thursday 27 April 2017 (issued every 10 minutes, with the page automatically refreshed every 10 minutes)

About weather observations | Map of Hobart area stations | Latest observations for Hobart area | Other Formats
Station Details ID: 094155 Name: TASMAN ISLAND Lat: -43.24 Lon: 148.00 Height: 240.0 m
Data from the previous 72 hours. | See also: Recent months at Tasman Island
Date/Time
EST
Temp
°C
App
Temp
°C
Dew
Point
°C
Rel
Hum
%
Delta-T
°C
Wind Press
QNH
hPa
Press
MSL
hPa
Rain since
9am
mm
Dir  Spd
km/h
Gust
km/h
Spd
kts
Gust
kts
27/03:34am 6.5 0.6 4.0 84 1.1 SW 24 46 13 25 1016.5 1016.5 0.6
27/03:30am 6.7 1.4 3.0 77 1.6 SW 20 46 11 25 1016.4 1016.4 0.2
27/03:00am 7.8 1.3 0.3 59 3.0 SSW 24 35 13 19 1016.5 1016.5 0.2
27/02:30am 7.4 1.9 0.8 63 2.7 SSW 19 43 10 23 1016.8 1016.8 0.2
27/02:00am 7.5 0.9 -0.2 58 3.0 SSW 24 39 13 21 1016.7 1016.7 0.2
27/01:30am 8.0 2.3 2.7 69 2.3 SSW 22 44 12 24 1016.6 1016.6 0.2
27/01:00am 8.0 0.6 -0.5 55 3.3 SSW 28 43 15 23 1016.4 1016.4 0.2
27/12:30am 7.9 1.6 1.3 63 2.7 SSW 24 39 13 21 1016.4 1016.4 0.2
27/12:00am 7.7 1.8 2.0 67 2.4 SSW 22 39 12 21 1016.1 1016.0 0.2
 
Date/Time
EST
Temp
°C
App
Temp
°C
Dew
Point
°C
Rel
Hum
%
Delta-T
°C
Wind Press
QNH
hPa
Press
MSL
hPa
Rain since
9am
mm
Dir  Spd
km/h
Gust
km/h
Spd
kts
Gust
kts
26/11:30pm 7.5 0.4 1.1 64 2.6 SW 28 52 15 28 1016.1 1016.0 0.2
26/11:00pm 7.5 -0.8 2.2 69 2.2 SSW 35 57 19 31 1015.7 1015.6 0.2
26/10:44pm 8.0 0.7 0.3 58 3.1 SSW 28 46 15 25 1015.7 1015.6 0.2
26/10:30pm 7.7 0.5 0.9 62 2.8 SSW 28 41 15 22 1015.7 1015.6 0.2
26/10:00pm 7.9 0.4 0.9 61 2.8 SSW 30 48 16 26 1015.6 1015.5 0.2
26/09:30pm 8.1 0.1 0.6 59 3.0 SSW 32 48 17 26 1015.5 1015.4 0.2
26/09:00pm 7.8 0.8 -0.2 57 3.2 SSW 26 41 14 22 1015.1 1015.0 0.2
26/08:39pm 7.9 -0.1 0.2 58 3.1 SSW 32 50 17 27 1014.9 1014.8 0.2
26/08:30pm 8.0 0.0 0.5 59 3.0 SSW 32 46 17 25 1014.8 1014.7 0.2
26/08:02pm 8.1 -0.6 1.9 65 2.6 SSW 37 56 20 30 1014.3 1014.3 0.2
26/08:00pm 8.0 -1.2 1.4 63 2.7 SSW 39 54 21 29 1014.2 1014.2 0.2
26/07:30pm 8.2 1.1 1.6 63 2.7 SSW 28 52 15 28 1013.9 1013.9 0.2
26/07:00pm 7.6 1.2 3.3 74 1.9 S 26 41 14 22 1013.6 1013.6 0.2
26/06:39pm 7.6 0.9 3.5 75 1.8 S 28 46 15 25 1013.2 1013.2 0.2
26/06:30pm 8.3 0.8 3.2 70 2.2 SSW 32 46 17 25 1012.8 1012.8 0.2
26/06:05pm 7.4 0.6 3.3 75 1.8 S 28 50 15 27 1012.3 1012.2 0.2
26/06:00pm 7.5 1.5 3.4 75 1.8 S 24 44 13 24 1012.3 1012.2 0.2
26/05:30pm 7.1 -0.7 3.0 75 1.7 S 33 54 18 29 1011.7 1011.6 0.2
26/05:05pm 7.5 0.3 2.8 72 2.0 S 30 48 16 26 1011.3 1011.2 0.2
26/05:00pm 7.5 0.9 4.1 79 1.5 S 28 44 15 24 1011.2 1011.1 0.2
26/04:31pm 8.1 -1.2 3.2 71 2.1 SSW 41 59 22 32 1010.5 1010.4 0.2
26/04:30pm 8.2 -0.7 3.3 71 2.1 SSW 39 57 21 31 1010.5 1010.4 0.2
26/04:02pm 8.0 0.0 3.7 74 1.9 SSW 35 57 19 31 1010.1 1010.0 0.2
26/04:00pm 8.0 -0.2 2.9 70 2.2 SSW 35 52 19 28 1010.1 1010.0 0.2
26/03:30pm 8.3 0.0 2.3 66 2.5 SSW 35 57 19 31 1009.4 1009.4 0.0
26/03:00pm 8.3 0.0 2.3 66 2.5 SSW 35 54 19 29 1009.0 1008.9 0.0
26/02:30pm 8.9 0.8 3.1 67 2.5 SSW 35 65 19 35 1008.6 1008.5 0.0
26/02:00pm 9.2 0.7 1.1 57 3.4 SSW 35 61 19 33 1008.1 1008.0 0.0
26/01:30pm 8.8 0.2 2.6 65 2.7 SSW 37 61 20 33 1007.8 1007.7 0.0
26/01:00pm 8.6 -0.8 4.2 74 2.0 SSW 43 65 23 35 1007.2 1007.1 0.0
26/12:30pm 9.5 0.5 2.6 62 3.0 SSW 39 57 21 31 1007.0 1006.9 0.0
26/12:00pm 9.2 0.2 2.5 63 2.9 SSW 39 69 21 37 1006.7 1006.6 0.0
26/11:30am 8.9 -1.2 1.6 60 3.1 SW 44 72 24 39 1006.6 1006.5 0.0
26/11:00am 8.9 -1.1 2.0 62 2.9 SW 44 69 24 37 1006.5 1006.4 0.0
26/10:30am 8.7 -1.3 2.3 64 2.7 SSW 44 67 24 36 1006.2 1006.1 0.0
26/10:00am 8.4 -2.3 2.4 66 2.6 SW 48 83 26 45 1005.9 1005.8 0.0
26/09:30am 8.9 -1.7 0.6 56 3.4 SW 46 72 25 39 1005.4 1005.3 0.0
26/09:00am 9.0 -0.8 2.1 62 2.9 SW 43 74 23 40 1005.0 1004.9 6.0
26/08:30am 8.7 -2.7 0.4 56 3.4 SW 50 76 27 41 1004.4 1004.3 6.0
26/08:00am 8.4 -2.0 1.8 63 2.8 SW 46 74 25 40 1004.0 1003.9 6.0
26/07:30am 7.6 -1.8 4.2 79 1.5 SW 43 72 23 39 1003.6 1003.5 5.8
26/07:00am 7.9 -1.4 4.8 81 1.4 SW 43 70 23 38 1002.9 1002.8 5.8
26/06:30am 8.1 0.0 6.9 92 0.6 SW 39 65 21 35 1002.6 1002.5 5.8
26/06:00am 8.2 0.3 6.0 86 1.0 SSW 37 63 20 34 1001.7 1001.5 5.4
26/05:30am 8.5 1.0 7.9 96 0.3 SSW 37 61 20 33 1001.1 1001.0 5.4
26/05:00am 8.0 -0.3 7.6 97 0.2 SW 41 59 22 32 1000.8 1000.7 4.8
26/04:30am 8.3 1.5 7.9 97 0.2 SSW 33 57 18 31 1000.2 1000.1 3.8
26/04:00am 8.2 1.8 7.1 93 0.5 SW 30 50 16 27 1000.0 999.9 1.8
26/03:30am 9.5 5.8 7.9 90 0.8 WSW 17 46 9 25 999.5 999.4 1.4
26/03:00am 9.1 5.4 7.9 92 0.6 SW 17 39 9 21 999.3 999.2 1.4
26/02:30am 9.7 6.3 7.6 87 1.0 SW 15 39 8 21 999.2 999.1 0.6
26/02:04am 9.0 5.2 7.6 91 0.7 SW 17 44 9 24 999.0 998.9 0.2
26/02:00am 9.0 5.6 7.8 92 0.6 SW 15 39 8 21 999.1 999.0 0.2
26/01:30am 9.5 4.7 7.4 87 1.0 SSW 22 57 12 31 998.6 998.4 0.0
26/01:26am 10.2 6.7 7.1 81 1.5 SSW 15 56 8 30 998.6 998.4 0.0
26/01:00am 11.2 8.9 5.9 70 2.5 WNW 7 22 4 12 998.5 998.3 0.0
26/12:30am 11.3 7.9 5.8 69 2.6 WNW 13 26 7 14 998.3 998.1 0.0
26/12:00am 11.1 8.9 6.3 72 2.3 W 7 20 4 11 998.3 998.1 0.0
 
Date/Time
EST
Temp
°C
App
Temp
°C
Dew
Point
°C
Rel
Hum
%
Delta-T
°C
Wind Press
QNH
hPa
Press
MSL
hPa
Rain since
9am
mm
Dir  Spd
km/h
Gust
km/h
Spd
kts
Gust
kts
25/11:30pm 11.6 7.5 6.3 70 2.5 NW 17 30 9 16 998.3 998.1 0.0
25/11:00pm 11.5 8.7 6.8 73 2.3 NW 11 24 6 13 998.4 998.2 0.0
25/10:30pm 11.4 9.9 6.9 74 2.2 NW 4 19 2 10 998.5 998.3 0.0
25/10:00pm 11.5 10.0 6.8 73 2.3 ENE 4 13 2 7 998.6 998.4 0.0
25/09:30pm 12.1 9.0 7.4 73 2.3 WNW 13 30 7 16 998.9 998.8 0.0
25/09:00pm 11.9 8.6 8.2 78 1.9 WNW 15 24 8 13 999.1 999.0 0.0
25/08:30pm 11.3 8.9 10.0 92 0.7 NW 13 22 7 12 999.2 999.1 0.0
25/08:00pm 11.1 9.1 10.2 94 0.5 NNW 11 17 6 9 999.3 999.2 0.0
25/07:30pm 10.7 8.6 9.9 95 0.4 N 11 15 6 8 999.5 999.4 0.0
25/07:00pm 10.6 9.2 9.7 94 0.5 NNE 7 9 4 5 999.6 999.5 0.0
25/06:30pm 10.8 9.6 9.7 93 0.6 NNE 6 7 3 4 999.6 999.5 0.0
25/06:00pm 11.2 10.1 10.1 93 0.6 NNW 6 6 3 3 999.6 999.5 0.0
25/05:30pm 11.2 10.9 10.0 92 0.6 SW 2 6 1 3 999.6 999.5 0.0
25/05:00pm 11.5 10.4 10.1 91 0.7 S 6 9 3 5 999.7 999.6 0.0
25/04:30pm 12.6 11.5 10.7 88 1.0 S 7 11 4 6 999.9 999.8 0.0
25/04:00pm 12.5 11.3 10.4 87 1.1 S 7 11 4 6 999.9 999.8 0.0
25/03:30pm 13.8 12.8 11.1 84 1.4 SSE 7 11 4 6 1000.2 1000.1 0.0
25/03:00pm 14.3 13.5 11.8 85 1.4 S 7 13 4 7 1000.2 1000.1 0.0
25/02:30pm 13.3 12.6 11.4 88 1.0 S 6 9 3 5 1000.5 1000.4 0.0
25/02:00pm 13.4 12.5 11.5 88 1.0 S 7 11 4 6 1000.7 1000.6 0.0
25/01:30pm 13.3 12.0 11.2 87 1.1 SSE 9 15 5 8 1001.2 1001.1 0.0
25/01:00pm 13.5 12.4 11.9 90 0.9 SSW 9 13 5 7 1001.9 1001.7 0.0
25/12:30pm 13.2 12.1 11.9 92 0.7 SSW 9 15 5 8 1002.4 1002.3 0.0
25/12:00pm 12.8 11.2 11.7 93 0.6 SSW 11 17 6 9 1003.0 1002.9 0.0
25/11:30am 13.2 12.6 12.4 95 0.4 S 7 13 4 7 1003.5 1003.4 0.0
25/11:00am 13.0 12.0 12.2 95 0.4 S 9 13 5 7 1004.0 1003.9 0.0
25/10:30am 12.7 11.2 11.9 95 0.4 S 11 15 6 8 1004.4 1004.3 0.0
25/10:00am 12.8 11.7 11.9 94 0.5 S 9 17 5 9 1004.9 1004.8 0.0
25/09:30am 13.1 13.3 12.0 93 0.6 SSW 2 9 1 5 1005.3 1005.2 0.0
25/09:00am 13.2 13.0 11.9 92 0.7 ENE 4 7 2 4 1005.8 1005.7 0.4
25/08:30am 13.3 12.7 11.7 90 0.9 WSW 6 9 3 5 1006.1 1006.0 0.4
25/08:00am 13.2 12.7 10.9 86 1.2 SSW 4 6 2 3 1006.4 1006.3 0.4
25/07:30am 13.0 12.8 10.4 84 1.4 ESE 2 2 1 1 1006.3 1006.2 0.4
25/07:00am 12.9 12.2 9.9 82 1.6 SE 4 6 2 3 1006.1 1006.0 0.4
25/06:30am 13.1 13.1 9.9 81 1.7 CALM 0 2 0 1 1006.4 1006.3 0.4
25/06:00am 13.3 12.2 10.1 81 1.7 WNW 6 9 3 5 1006.7 1006.6 0.4
25/05:30am 13.2 12.0 10.4 83 1.5 WNW 7 9 4 5 1006.8 1006.7 0.4
25/05:00am 13.3 12.2 10.5 83 1.5 WNW 7 11 4 6 1007.1 1007.0 0.4
25/04:30am 13.4 12.2 10.4 82 1.6 WNW 7 13 4 7 1007.4 1007.3 0.4
25/04:00am 13.7 12.1 10.1 79 1.9 WNW 9 19 5 10 1007.7 1007.6 0.4
25/03:30am 13.6 11.2 10.0 79 1.9 WNW 13 22 7 12 1007.8 1007.7 0.4
25/03:00am 13.3 12.2 10.8 85 1.3 NW 7 13 4 7 1008.1 1008.0 0.4
25/02:30am 13.2 12.3 11.3 88 1.0 NNW 7 9 4 5 1008.5 1008.4 0.4
25/02:00am 13.3 12.5 11.7 90 0.9 N 7 9 4 5 1008.9 1008.8 0.4
25/01:30am 13.2 12.1 11.8 91 0.8 N 9 11 5 6 1009.4 1009.4 0.4
25/01:00am 13.4 11.7 12.3 93 0.6 WNW 13 15 7 8 1009.8 1009.8 0.4
25/12:30am 13.5 12.3 12.7 95 0.4 WNW 11 15 6 8 1010.4 1010.3 0.4
25/12:00am 13.3 12.4 12.7 96 0.3 NNW 9 13 5 7 1010.9 1010.8 0.4
 
Date/Time
EST
Temp
°C
App
Temp
°C
Dew
Point
°C
Rel
Hum
%
Delta-T
°C
Wind Press
QNH
hPa
Press
MSL
hPa
Rain since
9am
mm
Dir  Spd
km/h
Gust
km/h
Spd
kts
Gust
kts
24/11:30pm 13.1 12.2 12.5 96 0.3 NNW 9 15 5 8 1011.4 1011.3 0.4
24/11:00pm 13.1 12.2 12.5 96 0.3 N 9 13 5 7 1011.7 1011.6 0.4
24/10:30pm 13.0 12.6 12.5 97 0.3 NW 6 6 3 3 1012.0 1011.9 0.4
24/10:00pm 13.1 12.6 12.6 97 0.3 N 7 7 4 4 1012.4 1012.3 0.4
24/09:30pm 13.4 13.2 12.9 97 0.3 N 6 6 3 3 1012.5 1012.4 0.4
24/09:00pm 13.2 12.7 12.7 97 0.3 NNE 7 9 4 5 1012.9 1012.9 0.4
24/08:30pm 13.4 13.1 12.8 96 0.3 N 6 9 3 5 1013.2 1013.2 0.4
24/08:00pm 13.6 13.2 13.0 96 0.3 N 7 9 4 5 1013.4 1013.4 0.4
24/07:30pm 13.6 13.4 13.0 96 0.3 WNW 6 7 3 4 1013.7 1013.7 0.4
24/07:00pm 13.7 12.6 13.1 96 0.3 NW 11 26 6 14 1013.9 1013.9 0.2
24/06:30pm 13.9 10.0 13.4 97 0.3 N 26 41 14 22 1013.6 1013.6 0.2
24/06:00pm 13.9 7.9 13.3 96 0.3 N 37 46 20 25 1013.5 1013.5 0.2
24/05:30pm 13.8 7.4 13.2 96 0.3 N 39 48 21 26 1013.7 1013.7 0.2
24/05:00pm 13.6 7.8 12.8 95 0.4 N 35 44 19 24 1013.7 1013.7 0.0
24/04:30pm 13.8 8.1 12.9 94 0.5 NNE 35 44 19 24 1013.9 1013.9 0.0
24/04:00pm 13.9 7.7 12.5 91 0.8 NNE 37 46 20 25 1014.0 1014.0 0.0
24/03:30pm 13.7 7.1 12.6 93 0.6 N 39 50 21 27 1014.3 1014.3 0.0
24/03:00pm 13.8 7.3 12.9 94 0.5 NNE 39 50 21 27 1014.7 1014.6 0.0
24/02:30pm 13.8 6.6 12.0 89 1.0 N 41 50 22 27 1015.2 1015.1 0.0
24/02:00pm 14.0 7.6 12.0 88 1.1 N 37 50 20 27 1015.6 1015.5 0.0
24/01:30pm 14.2 6.9 11.5 84 1.5 N 41 54 22 29 1016.1 1016.0 0.0
24/01:00pm 13.9 5.7 11.6 86 1.2 N 46 56 25 30 1016.4 1016.4 0.0
24/12:30pm 13.9 7.4 12.8 93 0.6 N 39 48 21 26 1016.9 1016.9 0.0
24/12:00pm 13.9 6.5 12.5 91 0.8 NNE 43 54 23 29 1017.4 1017.4 0.0
24/11:30am 13.7 7.1 12.6 93 0.6 NNE 39 52 21 28 1018.1 1018.1 0.0
24/11:00am 13.5 8.0 12.4 93 0.6 NNE 33 46 18 25 1018.7 1018.7 0.0
24/10:30am 13.3 7.3 12.2 93 0.6 NNE 35 46 19 25 1019.1 1019.0 0.0
24/10:00am 13.3 6.6 12.2 93 0.6 NNE 39 46 21 25 1019.5 1019.4 0.0
24/09:30am 13.0 7.2 11.6 91 0.8 NNE 33 44 18 24 1020.0 1020.0 0.0
24/09:00am 12.8 6.6 11.5 92 0.7 NNE 35 46 19 25 1020.2 1020.2 0.8
24/08:30am 12.8 6.3 11.7 93 0.6 NNE 37 44 20 24 1020.5 1020.5 0.8
24/08:00am 12.2 6.9 11.4 95 0.4 NNE 30 43 16 23 1020.8 1020.8 0.8
24/07:30am 12.5 7.0 11.7 95 0.4 NNE 32 43 17 23 1021.0 1021.0 0.8
24/07:00am 12.2 7.3 11.3 94 0.5 NNE 28 37 15 20 1021.2 1021.2 0.6
24/06:30am 12.6 9.2 11.2 91 0.7 NNE 20 30 11 16 1021.4 1021.4 0.0
24/06:00am 12.2 9.7 10.9 92 0.7 NNE 15 22 8 12 1021.6 1021.6 0.0
24/05:30am 12.1 9.5 10.8 92 0.7 NNE 15 26 8 14 1021.8 1021.8 0.0
24/05:00am 12.1 9.5 10.8 92 0.7 NE 15 24 8 13 1021.9 1021.9 0.0
24/04:30am 11.8 10.0 10.7 93 0.6 NE 11 26 6 14 1022.0 1022.0 0.0
24/04:00am 11.5 10.3 10.4 93 0.6 NE 7 13 4 7 1022.3 1022.3 0.0

Latest Capital City Observations: Canberra | Sydney | Melbourne | Brisbane | Adelaide | Perth | Hobart | Darwin

Other Formats:

Comma delimited format used in spreadsheet applications
http://www.bom.gov.au/fwo/IDT60901/IDT60901.95986.axf

JavaScript Object Notation format (JSON) in row-major order
http://www.bom.gov.au/fwo/IDT60901/IDT60901.95986.json